Baldwin Harbor, New York
Current Conditions -  °F | °C
As of 9:51 PM on Friday 21 Nov 2014 (Local Time) from KJFK Reporting Station
Clear Clear  
Wind Chill: -4°   Ceiling: Unl
Heat Index: -1°   Visibility: 10mi
Dew Point: -13°   Wind: 5mph
Humidity: 41%   Direction: 360°N
Pressure: 30.51"   Gusts: NA
Location:  40.6539°N, 73.609°W
Report Text: KJFK 220251Z 36004KT 10SM CLR M01/M13 A3051 RMK AO2 SLP332 T10111128 51010
Loading
Personal Weather Stations






























Interactive Weather Map New forecast layout! Learn more

10-Day Weather Forecast

Advertisements
Track Severe Weather on mobile